Time;durP1;ratioP1;P1;durP2;ratioP2;P2;SDS_P1;SDS_P2;PMS_P1;PMS_P2;Temp;Humidity;BMP_temperature;BMP_pressure;BME280_temperature;BME280_humidity;BME280_pressure;Samples;Min_cycle;Max_cycle;Signal;HPM_P1;HPM_P2
2023/04/28 00:01:44;;;;;;;11.60;7.63;;;5.80;99.90;;;;;;4960939;28;20205;-58
2023/04/28 00:04:11;;;;;;;9.13;7.00;;;5.80;99.90;;;;;;4951037;28;20222;-59
2023/04/28 00:06:38;;;;;;;9.47;7.10;;;5.80;99.90;;;;;;4962411;28;20312;-53
2023/04/28 00:09:05;;;;;;;9.17;7.80;;;5.80;99.90;;;;;;4946262;28;20210;-60
2023/04/28 00:11:32;;;;;;;8.80;7.13;;;5.80;99.90;;;;;;4959033;28;20317;-57
2023/04/28 00:13:59;;;;;;;11.47;7.27;;;5.80;99.90;;;;;;4966154;28;20196;-59
2023/04/28 00:16:26;;;;;;;10.40;7.20;;;5.70;99.90;;;;;;4959618;28;20292;-59
2023/04/28 00:18:55;;;;;;;8.63;7.23;;;5.70;99.90;;;;;;4960806;28;20749;-58
2023/04/28 00:21:22;;;;;;;10.23;7.73;;;5.70;99.90;;;;;;4956645;28;20294;-54
2023/04/28 00:23:49;;;;;;;9.10;7.60;;;5.70;99.90;;;;;;4947956;28;20586;-54
2023/04/28 00:26:16;;;;;;;8.97;7.70;;;5.80;99.90;;;;;;4965190;28;20230;-54
2023/04/28 00:28:43;;;;;;;13.80;8.10;;;5.80;99.90;;;;;;4952862;28;20280;-57
2023/04/28 00:31:11;;;;;;;10.30;7.27;;;5.80;99.90;;;;;;4956492;28;20205;-56
2023/04/28 00:33:38;;;;;;;9.47;7.37;;;5.80;99.90;;;;;;4946356;28;20198;-53
2023/04/28 00:36:08;;;;;;;9.40;7.50;;;5.80;99.90;;;;;;4963435;28;20257;-57
2023/04/28 00:38:37;;;;;;;9.80;7.33;;;5.80;99.90;;;;;;4966612;28;20289;-52
2023/04/28 00:41:04;;;;;;;8.73;7.40;;;5.80;99.90;;;;;;4948788;28;20222;-57
2023/04/28 00:43:31;;;;;;;10.80;7.17;;;5.80;99.90;;;;;;4954539;28;20198;-57
2023/04/28 00:45:58;;;;;;;9.90;7.87;;;5.80;99.90;;;;;;4966474;28;20767;-59
2023/04/28 00:48:26;;;;;;;10.60;7.73;;;5.70;99.90;;;;;;4945055;28;20906;-54
2023/04/28 00:50:54;;;;;;;12.07;8.33;;;5.80;99.90;;;;;;4965792;28;20194;-59
2023/04/28 00:53:22;;;;;;;9.80;7.47;;;5.70;99.90;;;;;;4946747;28;20873;-55
2023/04/28 00:55:52;;;;;;;9.20;7.90;;;5.70;99.90;;;;;;4938222;28;20229;-57
2023/04/28 00:58:19;;;;;;;10.30;8.07;;;5.70;99.90;;;;;;4954040;28;21282;-57
2023/04/28 01:00:46;;;;;;;13.33;8.50;;;5.60;99.90;;;;;;4953934;28;20675;-54
2023/04/28 01:03:14;;;;;;;15.27;8.43;;;5.60;99.90;;;;;;4963058;28;20253;-57
2023/04/28 01:05:41;;;;;;;9.70;7.47;;;5.50;99.90;;;;;;4945906;28;20646;-55
2023/04/28 01:08:07;;;;;;;10.47;8.10;;;5.50;99.90;;;;;;4944705;28;20237;-59
2023/04/28 01:10:36;;;;;;;12.17;7.43;;;5.50;99.90;;;;;;4960629;28;20217;-56
2023/04/28 01:13:11;;;;;;;11.07;8.00;;;5.40;99.90;;;;;;4931620;28;20210;-55
2023/04/28 01:15:38;;;;;;;11.03;7.00;;;5.40;99.90;;;;;;4979411;28;20210;-60
2023/04/28 01:18:06;;;;;;;11.33;8.47;;;5.30;99.90;;;;;;4945141;28;20197;-61
2023/04/28 01:20:33;;;;;;;8.90;7.03;;;5.30;99.90;;;;;;4980691;28;20210;-58
2023/04/28 01:22:59;;;;;;;9.50;8.13;;;5.20;99.90;;;;;;4947115;28;20706;-61
2023/04/28 01:25:28;;;;;;;8.90;8.00;;;5.20;99.90;;;;;;4957144;28;20919;-60
2023/04/28 01:27:55;;;;;;;9.17;8.00;;;5.20;99.90;;;;;;4942538;28;20206;-61
2023/04/28 01:30:22;;;;;;;13.67;7.67;;;5.10;99.90;;;;;;4941713;28;20232;-59
2023/04/28 01:32:49;;;;;;;10.13;7.73;;;5.10;99.90;;;;;;4965979;28;20190;-55
2023/04/28 01:35:16;;;;;;;11.00;8.00;;;5.10;99.90;;;;;;4961609;28;20186;-54
2023/04/28 01:37:43;;;;;;;13.27;8.10;;;5.00;99.90;;;;;;4979859;28;20544;-58
2023/04/28 01:40:12;;;;;;;11.57;7.90;;;4.90;99.90;;;;;;4916150;28;20214;-59
2023/04/28 01:42:40;;;;;;;11.87;7.63;;;4.80;99.90;;;;;;4985808;28;20194;-52
2023/04/28 01:45:08;;;;;;;10.57;8.30;;;4.80;99.90;;;;;;4952483;28;20218;-59
2023/04/28 01:47:34;;;;;;;13.37;8.00;;;4.70;99.90;;;;;;4945511;28;20618;-56
2023/04/28 01:50:02;;;;;;;11.40;8.27;;;4.70;99.90;;;;;;4962657;28;20202;-60
2023/04/28 01:52:29;;;;;;;9.87;7.57;;;4.70;99.90;;;;;;4938853;28;20289;-59
2023/04/28 01:54:56;;;;;;;11.87;8.53;;;4.70;99.90;;;;;;4948480;28;20186;-59
2023/04/28 01:57:23;;;;;;;12.53;8.40;;;4.60;99.90;;;;;;4932413;28;20228;-54
2023/04/28 01:59:52;;;;;;;10.37;7.10;;;4.60;99.90;;;;;;4950050;28;20206;-58
2023/04/28 02:02:20;;;;;;;16.43;9.07;;;4.50;99.90;;;;;;4941513;28;20237;-52
2023/04/28 02:04:46;;;;;;;9.70;8.00;;;4.50;99.90;;;;;;4946157;28;20226;-47
2023/04/28 02:07:14;;;;;;;10.03;7.33;;;4.40;99.90;;;;;;4970014;28;20213;-56
2023/04/28 02:09:41;;;;;;;10.97;7.70;;;4.40;99.90;;;;;;4941978;28;20598;-47
2023/04/28 02:12:08;;;;;;;8.87;7.03;;;4.30;99.90;;;;;;4958210;28;20761;-56
2023/04/28 02:14:35;;;;;;;11.33;7.90;;;4.30;99.90;;;;;;4976980;28;20219;-53
2023/04/28 02:17:04;;;;;;;10.33;7.57;;;4.20;99.90;;;;;;4933354;28;20237;-61
2023/04/28 02:19:37;;;;;;;12.40;7.40;;;4.20;99.90;;;;;;4944113;28;20201;-59
2023/04/28 02:22:06;;;;;;;9.13;7.63;;;4.10;99.90;;;;;;4936874;28;20194;-61
2023/04/28 02:24:35;;;;;;;12.17;7.70;;;4.10;99.90;;;;;;4945091;28;20210;-56
2023/04/28 02:27:04;;;;;;;12.57;8.17;;;4.10;99.90;;;;;;4948599;28;20222;-62
2023/04/28 02:29:30;;;;;;;11.27;8.07;;;4.10;99.90;;;;;;4968732;28;20221;-53
2023/04/28 02:31:58;;;;;;;11.03;7.90;;;4.10;99.90;;;;;;4968170;28;20208;-62
2023/04/28 02:34:26;;;;;;;9.60;7.40;;;4.10;99.90;;;;;;4948064;28;20193;-62
2023/04/28 02:36:53;;;;;;;10.47;8.10;;;4.00;99.90;;;;;;4971682;28;20927;-62
2023/04/28 02:39:24;;;;;;;12.53;7.90;;;4.00;99.90;;;;;;4961650;28;20494;-58
2023/04/28 02:41:52;;;;;;;8.90;7.43;;;4.00;99.90;;;;;;4960777;28;20205;-61
2023/04/28 02:44:20;;;;;;;11.80;7.10;;;3.90;99.90;;;;;;4933660;28;20916;-57
2023/04/28 02:46:47;;;;;;;10.27;7.27;;;3.90;99.90;;;;;;4952106;28;20789;-58
2023/04/28 02:49:14;;;;;;;9.37;8.23;;;3.90;99.90;;;;;;4959349;28;20197;-59
2023/04/28 02:51:44;;;;;;;10.77;6.97;;;3.90;99.90;;;;;;4942662;28;20206;-58
2023/04/28 02:54:11;;;;;;;9.17;7.27;;;3.80;99.90;;;;;;4936067;28;20252;-56
2023/04/28 02:56:39;;;;;;;9.70;7.87;;;3.80;99.90;;;;;;4979410;28;20328;-58
2023/04/28 02:59:07;;;;;;;12.17;7.27;;;3.80;99.90;;;;;;4920130;28;20209;-62
2023/04/28 03:01:34;;;;;;;10.30;7.80;;;3.80;99.90;;;;;;4949528;28;20199;-60
2023/04/28 03:04:01;;;;;;;17.03;10.00;;;3.70;99.90;;;;;;4945153;28;20306;-60
2023/04/28 03:06:28;;;;;;;11.10;8.17;;;3.70;99.90;;;;;;4961438;28;20329;-56
2023/04/28 03:08:56;;;;;;;11.27;8.50;;;3.70;99.90;;;;;;4962917;28;20277;-59
2023/04/28 03:11:23;;;;;;;12.47;8.40;;;3.70;99.90;;;;;;4976957;28;20277;-60
2023/04/28 03:13:50;;;;;;;12.97;8.07;;;3.70;99.90;;;;;;4925451;28;20210;-59
2023/04/28 03:16:17;;;;;;;14.33;8.03;;;3.70;99.90;;;;;;4952643;28;20212;-59
2023/04/28 03:18:44;;;;;;;10.33;7.90;;;3.60;99.90;;;;;;4969801;28;20213;-61
2023/04/28 03:21:11;;;;;;;11.63;7.90;;;3.60;99.90;;;;;;4951835;28;20819;-59
2023/04/28 03:23:41;;;;;;;13.23;8.57;;;3.60;99.90;;;;;;4964565;28;20236;-61
2023/04/28 03:26:09;;;;;;;11.03;7.60;;;3.60;99.90;;;;;;4943584;28;20210;-54
2023/04/28 03:28:36;;;;;;;12.13;7.53;;;3.60;99.90;;;;;;4967877;28;20218;-57
2023/04/28 03:31:03;;;;;;;8.63;7.23;;;3.50;99.90;;;;;;4926447;28;20210;-58
2023/04/28 03:33:30;;;;;;;15.57;8.60;;;3.50;99.90;;;;;;4934053;28;20683;-60
2023/04/28 03:35:59;;;;;;;12.33;8.53;;;3.50;99.90;;;;;;4952951;28;20213;-59
2023/04/28 03:38:25;;;;;;;13.30;8.80;;;3.50;99.90;;;;;;4949173;28;20281;-61
2023/04/28 03:40:53;;;;;;;12.03;8.47;;;3.50;99.90;;;;;;4977550;28;20642;-58
2023/04/28 03:43:21;;;;;;;11.10;8.43;;;3.50;99.90;;;;;;4965137;28;20212;-58
2023/04/28 03:46:05;;;;;;;10.60;8.20;;;3.50;99.90;;;;;;4921996;28;20220;-60
2023/04/28 03:48:33;;;;;;;13.67;8.57;;;3.30;99.90;;;;;;4984491;28;20194;-60
2023/04/28 03:51:00;;;;;;;13.50;8.60;;;3.60;99.90;;;;;;4933743;28;20209;-55
2023/04/28 03:53:27;;;;;;;11.70;8.03;;;3.50;99.90;;;;;;4982362;28;20737;-57
2023/04/28 03:55:54;;;;;;;10.90;8.40;;;3.50;99.90;;;;;;4946490;28;20214;-58
2023/04/28 03:58:23;;;;;;;10.53;8.27;;;3.40;99.90;;;;;;4937148;28;20894;-57
2023/04/28 04:00:50;;;;;;;13.73;8.83;;;3.40;99.90;;;;;;4928098;28;20227;-55
2023/04/28 04:03:19;;;;;;;13.33;9.27;;;3.40;99.90;;;;;;4968780;28;20366;-51
2023/04/28 04:05:46;;;;;;;13.00;8.37;;;3.40;99.90;;;;;;4971218;28;20230;-58
2023/04/28 04:08:13;;;;;;;14.73;8.83;;;3.40;99.90;;;;;;4969132;28;20197;-57
2023/04/28 04:10:39;;;;;;;11.90;8.07;;;3.40;99.90;;;;;;4964651;28;20202;-57
2023/04/28 04:13:06;;;;;;;12.63;8.20;;;3.40;99.90;;;;;;4957154;28;20197;-57
2023/04/28 04:15:35;;;;;;;20.00;8.97;;;3.40;99.90;;;;;;4934719;28;20229;-59
2023/04/28 04:18:03;;;;;;;13.10;8.47;;;3.40;99.90;;;;;;4982696;28;20212;-61
2023/04/28 04:20:42;;;;;;;11.27;8.00;;;3.40;99.90;;;;;;4939751;28;20202;-63
2023/04/28 04:23:10;;;;;;;10.67;8.20;;;3.40;99.90;;;;;;4949505;28;20205;-61
2023/04/28 04:25:37;;;;;;;13.07;8.53;;;3.40;99.90;;;;;;4972908;28;20233;-63
2023/04/28 04:28:04;;;;;;;15.00;8.43;;;3.50;99.90;;;;;;4944322;28;20194;-62
2023/04/28 04:30:31;;;;;;;13.53;8.23;;;3.40;99.90;;;;;;4926777;28;20309;-45
2023/04/28 04:33:00;;;;;;;11.77;8.13;;;3.30;99.90;;;;;;4997738;28;20202;-59
2023/04/28 04:35:26;;;;;;;17.07;8.47;;;3.30;99.90;;;;;;4945343;28;20214;-59
2023/04/28 04:37:53;;;;;;;9.97;8.13;;;3.30;99.90;;;;;;4949703;28;20213;-57
2023/04/28 04:40:21;;;;;;;14.53;8.60;;;3.30;99.90;;;;;;4960830;28;20194;-57
2023/04/28 04:42:49;;;;;;;14.03;8.00;;;3.70;99.90;;;;;;4946595;28;20209;-60
2023/04/28 04:45:18;;;;;;;12.70;8.87;;;3.60;99.90;;;;;;4978514;28;20217;-54
2023/04/28 04:47:47;;;;;;;11.77;7.83;;;3.50;99.90;;;;;;4944441;28;20222;-59
2023/04/28 04:50:15;;;;;;;10.77;7.83;;;3.80;99.90;;;;;;4964677;28;20205;-54
2023/04/28 04:52:42;;;;;;;14.37;8.23;;;3.80;99.90;;;;;;4946039;28;20206;-56
2023/04/28 04:55:10;;;;;;;10.03;7.63;;;3.80;99.90;;;;;;4948694;28;20198;-51
2023/04/28 04:57:40;;;;;;;12.63;7.53;;;3.80;99.90;;;;;;4946051;28;20194;-45
2023/04/28 05:00:26;;;;;;;13.80;7.83;;;3.90;99.90;;;;;;4950812;28;20303;-44
2023/04/28 05:02:53;;;;;;;8.93;7.37;;;3.90;99.90;;;;;;4930531;28;20212;-45
2023/04/28 05:05:22;;;;;;;11.83;7.20;;;4.00;99.90;;;;;;4970469;28;20216;-42
2023/04/28 05:08:02;;;;;;;11.50;7.67;;;4.00;99.90;;;;;;4931065;28;20214;-46
2023/04/28 05:10:51;;;;;;;9.90;7.07;;;4.10;99.90;;;;;;4963956;28;21087;-48
2023/04/28 05:13:19;;;;;;;9.97;6.97;;;4.20;99.90;;;;;;4948356;28;20226;-43
2023/04/28 05:15:49;;;;;;;11.20;7.93;;;4.20;99.90;;;;;;4937903;29;20285;-42
2023/04/28 05:18:30;;;;;;;8.87;6.67;;;4.00;99.90;;;;;;4922091;28;20654;-40
2023/04/28 05:20:58;;;;;;;10.20;6.47;;;4.40;99.90;;;;;;4978772;28;20185;-39
2023/04/28 05:23:26;;;;;;;9.43;7.70;;;4.10;99.90;;;;;;4939561;28;20214;-43
2023/04/28 05:25:53;;;;;;;8.57;5.90;;;4.20;99.90;;;;;;4978823;28;20209;-41
2023/04/28 05:28:20;;;;;;;10.60;6.00;;;4.20;99.90;;;;;;4958728;28;20210;-39
2023/04/28 05:30:48;;;;;;;10.27;6.60;;;4.60;99.90;;;;;;4943639;28;20216;-43
2023/04/28 05:33:15;;;;;;;7.23;5.80;;;4.50;99.90;;;;;;4946574;28;20206;-40
2023/04/28 05:35:42;;;;;;;8.07;5.90;;;4.60;99.90;;;;;;4948457;28;20214;-42
2023/04/28 05:38:11;;;;;;;6.80;5.20;;;4.80;99.90;;;;;;4929282;28;20210;-39
2023/04/28 05:40:38;;;;;;;7.97;5.40;;;4.80;99.90;;;;;;4944333;28;20271;-41
2023/04/28 05:43:06;;;;;;;6.67;5.53;;;5.00;99.90;;;;;;4945531;28;20198;-42
2023/04/28 05:45:34;;;;;;;7.40;5.20;;;5.10;99.90;;;;;;4936917;28;20220;-42
2023/04/28 05:48:00;;;;;;;8.33;4.93;;;5.10;99.90;;;;;;4929836;28;20233;-39
2023/04/28 05:50:27;;;;;;;8.40;5.10;;;5.20;99.90;;;;;;4941426;28;20194;-44
2023/04/28 05:53:15;;;;;;;8.63;5.47;;;5.30;99.90;;;;;;4956684;28;20209;-43
2023/04/28 05:56:01;;;;;;;6.97;4.27;;;5.50;99.90;;;;;;4954184;28;20304;-39
2023/04/28 05:58:30;;;;;;;6.20;4.10;;;5.50;99.90;;;;;;4964572;28;20262;-40
2023/04/28 06:00:58;;;;;;;8.67;4.77;;;5.70;99.90;;;;;;4938696;28;20237;-42
2023/04/28 06:03:26;;;;;;;7.13;4.07;;;5.80;99.90;;;;;;4935002;28;20275;-40
2023/04/28 06:05:53;;;;;;;4.93;4.00;;;6.00;99.90;;;;;;4937091;28;20224;-41
2023/04/28 06:08:21;;;;;;;4.37;3.97;;;6.00;99.90;;;;;;4942157;28;22094;-41
2023/04/28 06:10:48;;;;;;;4.40;3.27;;;6.20;99.90;;;;;;4939352;28;20293;-42
2023/04/28 06:13:16;;;;;;;3.93;3.37;;;6.30;99.90;;;;;;4949518;28;20191;-42
2023/04/28 06:15:43;;;;;;;5.47;3.37;;;6.50;99.90;;;;;;4939798;28;20241;-42
2023/04/28 06:18:15;;;;;;;5.10;3.20;;;6.60;99.90;;;;;;4961414;28;20849;-39
2023/04/28 06:20:42;;;;;;;9.93;2.87;;;6.70;99.90;;;;;;4926499;28;20214;-42
2023/04/28 06:23:10;;;;;;;4.97;2.97;;;6.80;99.90;;;;;;4945019;28;20198;-41
2023/04/28 06:25:46;;;;;;;4.43;3.10;;;7.00;99.90;;;;;;4957653;28;20225;-40
2023/04/28 06:28:13;;;;;;;4.37;3.00;;;7.20;99.90;;;;;;4959632;28;20190;-43
2023/04/28 06:30:41;;;;;;;4.03;2.57;;;7.30;99.90;;;;;;4959211;28;20253;-42
2023/04/28 06:33:08;;;;;;;5.83;3.03;;;7.50;99.90;;;;;;4929909;28;20890;-41
2023/04/28 06:35:37;;;;;;;2.50;2.30;;;7.60;99.90;;;;;;4968501;28;20233;-40
2023/04/28 06:38:04;;;;;;;5.03;2.43;;;7.70;99.90;;;;;;4917283;28;20220;-41
2023/04/28 06:40:31;;;;;;;4.73;2.70;;;7.80;99.90;;;;;;4958825;28;20880;-42
2023/04/28 06:43:02;;;;;;;2.93;1.93;;;8.00;99.90;;;;;;4927619;28;20729;-41
2023/04/28 06:45:35;;;;;;;2.80;2.50;;;8.20;99.90;;;;;;4954934;28;20204;-43
2023/04/28 06:48:03;;;;;;;6.53;2.30;;;8.30;99.90;;;;;;4956572;28;20194;-40
2023/04/28 06:50:30;;;;;;;2.57;2.27;;;8.40;99.90;;;;;;4957710;28;20202;-40
2023/04/28 06:52:57;;;;;;;4.00;2.07;;;8.60;99.90;;;;;;4925481;28;20217;-41
2023/04/28 06:55:24;;;;;;;3.27;2.30;;;8.70;99.90;;;;;;4962258;28;20209;-43
2023/04/28 06:57:51;;;;;;;2.40;2.20;;;8.80;99.90;;;;;;4949146;28;20229;-40
2023/04/28 07:00:20;;;;;;;3.57;2.13;;;8.90;99.90;;;;;;4949497;28;20209;-41
2023/04/28 07:02:48;;;;;;;3.23;2.47;;;9.00;99.90;;;;;;4963769;28;20201;-43
2023/04/28 07:05:15;;;;;;;4.33;2.27;;;9.10;99.90;;;;;;4953180;28;20276;-40
2023/04/28 07:07:42;;;;;;;3.30;2.50;;;9.20;99.90;;;;;;4945034;28;20273;-41
2023/04/28 07:10:10;;;;;;;4.33;2.40;;;9.20;99.90;;;;;;4961774;28;20198;-40
2023/04/28 07:12:37;;;;;;;5.87;2.23;;;9.30;99.90;;;;;;4944020;28;20295;-41
2023/04/28 07:15:04;;;;;;;2.47;2.27;;;9.30;99.90;;;;;;4946633;28;20500;-41
2023/04/28 07:17:33;;;;;;;4.33;2.20;;;9.30;99.90;;;;;;4961510;28;20682;-43
2023/04/28 07:20:00;;;;;;;5.80;2.80;;;9.40;99.90;;;;;;4954075;28;20271;-41
2023/04/28 07:22:28;;;;;;;2.50;2.30;;;9.40;99.90;;;;;;4951437;28;20654;-42
2023/04/28 07:24:55;;;;;;;4.53;2.27;;;;;;;;;;4932266;28;20210;-40
2023/04/28 07:27:22;;;;;;;3.40;1.93;;;9.60;99.90;;;;;;4955414;28;20280;-43
2023/04/28 07:29:49;;;;;;;2.57;2.37;;;9.70;99.90;;;;;;4948049;28;20214;-42
2023/04/28 07:32:16;;;;;;;2.33;2.13;;;9.80;99.90;;;;;;4940221;28;20288;-45
2023/04/28 07:34:44;;;;;;;3.00;2.03;;;9.80;99.90;;;;;;4952583;28;20228;-44
2023/04/28 07:37:12;;;;;;;3.17;2.10;;;9.90;99.90;;;;;;4956549;28;20218;-42
2023/04/28 07:40:00;;;;;;;4.83;2.07;;;9.90;99.90;;;;;;4944000;28;20221;-40
2023/04/28 07:42:27;;;;;;;4.73;2.30;;;10.00;99.90;;;;;;4958384;28;20214;-46
2023/04/28 07:44:56;;;;;;;3.70;2.23;;;10.10;99.90;;;;;;4957293;28;20208;-42
2023/04/28 07:47:23;;;;;;;3.17;2.20;;;;;;;;;;4960429;28;20332;-40
2023/04/28 07:49:52;;;;;;;5.30;2.40;;;10.30;99.90;;;;;;4946607;28;20273;-42
2023/04/28 07:52:19;;;;;;;3.53;2.30;;;10.30;99.90;;;;;;4937329;28;20339;-46
2023/04/28 07:54:54;;;;;;;3.27;2.33;;;10.40;99.90;;;;;;4944130;28;20277;-43
2023/04/28 07:57:22;;;;;;;3.03;1.80;;;10.60;99.90;;;;;;4955585;28;21957;-42
2023/04/28 07:59:48;;;;;;;2.73;2.03;;;10.70;99.90;;;;;;4963722;28;20214;-41
2023/04/28 08:02:21;;;;;;;4.27;2.23;;;10.90;99.90;;;;;;4966133;28;20198;-40
2023/04/28 08:04:50;;;;;;;3.87;1.73;;;11.00;99.90;;;;;;4972433;28;20202;-39
2023/04/28 08:07:19;;;;;;;3.53;1.93;;;11.10;99.90;;;;;;4958645;28;20895;-44
2023/04/28 08:09:47;;;;;;;3.60;2.33;;;11.20;99.90;;;;;;4930194;28;20524;-41
2023/04/28 08:12:13;;;;;;;2.03;1.73;;;11.30;99.90;;;;;;4965226;28;20186;-40
2023/04/28 08:14:40;;;;;;;3.23;2.17;;;11.50;99.90;;;;;;4947171;28;20194;-41
2023/04/28 08:17:08;;;;;;;3.60;2.40;;;11.60;98.80;;;;;;4955427;28;20230;-46
2023/04/28 08:19:35;;;;;;;2.57;1.90;;;11.70;98.40;;;;;;4953507;28;21326;-40
2023/04/28 08:22:04;;;;;;;5.53;2.20;;;11.70;97.80;;;;;;4944855;28;20225;-41
2023/04/28 08:24:33;;;;;;;2.77;2.10;;;11.80;97.40;;;;;;4939070;28;20218;-41
2023/04/28 08:27:02;;;;;;;3.77;2.03;;;11.90;97.30;;;;;;4959916;28;20241;-41
2023/04/28 08:29:50;;;;;;;4.33;2.20;;;12.10;97.10;;;;;;4950675;28;22128;-42
2023/04/28 08:32:18;;;;;;;4.90;2.17;;;12.20;96.90;;;;;;4959332;28;20209;-44
2023/04/28 08:34:45;;;;;;;4.33;2.13;;;12.30;96.60;;;;;;4956092;28;20193;-40
2023/04/28 08:37:12;;;;;;;1.97;1.70;;;12.40;99.90;;;;;;4957234;28;20217;-41
2023/04/28 08:39:41;;;;;;;4.43;2.57;;;12.30;99.90;;;;;;4953548;28;21396;-40
2023/04/28 08:42:08;;;;;;;3.73;2.10;;;12.50;99.90;;;;;;4978861;28;20186;-41
2023/04/28 08:44:38;;;;;;;3.10;2.00;;;12.30;95.30;;;;;;4957450;28;20784;-43
2023/04/28 08:47:11;;;;;;;4.87;2.30;;;12.40;95.50;;;;;;4950104;28;20307;-43
2023/04/28 08:49:39;;;;;;;5.03;2.43;;;12.40;95.10;;;;;;4954993;28;20217;-42
2023/04/28 08:52:11;;;;;;;4.73;2.87;;;12.50;95.20;;;;;;4971177;28;20602;-46
2023/04/28 08:54:40;;;;;;;3.70;2.37;;;12.60;94.60;;;;;;4953487;28;20201;-44
2023/04/28 08:57:09;;;;;;;3.30;2.53;;;12.50;94.60;;;;;;4954931;28;20222;-42
2023/04/28 08:59:38;;;;;;;4.17;2.67;;;12.50;93.70;;;;;;4962857;28;20248;-44
2023/04/28 09:02:05;;;;;;;5.33;2.30;;;12.50;93.70;;;;;;4949975;28;20206;-43
2023/04/28 09:04:32;;;;;;;4.67;2.37;;;12.60;93.60;;;;;;4950160;28;20206;-40
2023/04/28 09:06:58;;;;;;;2.73;2.17;;;12.50;93.40;;;;;;4964921;28;20218;-42
2023/04/28 09:09:28;;;;;;;2.97;2.77;;;12.60;93.20;;;;;;4952719;28;20415;-45
2023/04/28 09:11:58;;;;;;;3.17;2.87;;;12.60;93.30;;;;;;4953724;28;20627;-42
2023/04/28 09:14:27;;;;;;;3.37;2.90;;;12.70;92.50;;;;;;4964416;28;20721;-42
2023/04/28 09:16:54;;;;;;;3.57;3.27;;;12.80;92.60;;;;;;4950238;28;20226;-40
2023/04/28 09:19:21;;;;;;;4.17;2.80;;;12.80;92.40;;;;;;4937766;28;20225;-45
2023/04/28 09:21:50;;;;;;;6.00;3.03;;;12.80;92.30;;;;;;4963382;28;20321;-40
2023/04/28 09:24:27;;;;;;;5.97;3.27;;;12.90;92.30;;;;;;4960927;28;20190;-42
2023/04/28 09:26:56;;;;;;;6.70;3.47;;;13.00;91.90;;;;;;4955216;28;20311;-40
2023/04/28 09:29:25;;;;;;;4.73;3.23;;;;;;;;;;4970435;28;20244;-40
2023/04/28 09:31:53;;;;;;;3.03;2.73;;;;;;;;;;4947927;28;20289;-44
2023/04/28 09:34:21;;;;;;;3.17;2.50;;;13.10;99.90;;;;;;4957812;28;20327;-42
2023/04/28 09:36:48;;;;;;;3.57;2.60;;;13.30;99.90;;;;;;4950636;28;20328;-42
2023/04/28 09:39:17;;;;;;;5.80;2.97;;;;;;;;;;4961124;28;20221;-45
2023/04/28 09:41:45;;;;;;;6.10;2.63;;;;;;;;;;4952494;28;20678;-43
2023/04/28 09:44:15;;;;;;;4.63;2.90;;;;;;;;;;4918097;28;20221;-42
2023/04/28 09:46:43;;;;;;;4.40;2.53;;;;;;;;;;4960904;28;20222;-40
2023/04/28 09:49:10;;;;;;;4.53;3.33;;;;;;;;;;4949448;28;20596;-42
2023/04/28 09:51:38;;;;;;;5.93;2.50;;;;;;;;;;4959511;28;20192;-41
2023/04/28 09:54:05;;;;;;;3.03;2.80;;;;;;;;;;4962092;28;20199;-41
2023/04/28 09:56:34;;;;;;;5.60;2.67;;;;;;;;;;4946947;28;20789;-42
2023/04/28 09:59:02;;;;;;;3.90;2.80;;;;;;;;;;4919094;28;20592;-41
2023/04/28 10:01:39;;;;;;;3.87;2.47;;;;;;;;;;4968662;28;20202;-43
2023/04/28 10:04:07;;;;;;;3.50;2.53;;;;;;;;;;4940921;28;20208;-46
2023/04/28 10:06:36;;;;;;;4.57;2.70;;;;;;;;;;4962429;28;20226;-42
2023/04/28 10:09:04;;;;;;;3.13;2.47;;;;;;;;;;4958019;28;20218;-42
2023/04/28 10:11:33;;;;;;;6.93;3.00;;;;;;;;;;4948271;28;20659;-42
2023/04/28 10:14:01;;;;;;;5.50;3.03;;;;;;;;;;4935864;28;20210;-43
2023/04/28 10:16:32;;;;;;;4.37;2.40;;;;;;;;;;4968675;28;20221;-45
2023/04/28 10:19:02;;;;;;;5.50;3.07;;;13.60;99.90;;;;;;4928939;28;20233;-41
2023/04/28 10:21:36;;;;;;;3.57;2.70;;;13.80;91.40;;;;;;4959369;28;20212;-44
2023/04/28 10:24:11;;;;;;;2.93;2.40;;;13.90;99.30;;;;;;4958723;28;20202;-42
2023/04/28 10:27:06;;;;;;;4.27;2.70;;;13.90;99.90;;;;;;4942095;28;20240;-40
2023/04/28 10:29:34;;;;;;;4.97;2.60;;;13.90;99.90;;;;;;4918922;28;20205;-43
2023/04/28 10:32:22;;;;;;;4.63;2.63;;;14.00;99.90;;;;;;4957543;28;20240;-41
2023/04/28 10:34:51;;;;;;;4.03;2.70;;;13.90;99.90;;;;;;4947613;28;20553;-43
2023/04/28 10:37:18;;;;;;;4.20;2.97;;;13.80;99.90;;;;;;4951607;28;20294;-43
2023/04/28 10:40:34;;;;;;;4.60;2.77;;;13.80;99.90;;;;;;4945840;28;20210;-42
2023/04/28 10:43:01;;;;;;;4.10;2.97;;;13.80;99.90;;;;;;4905311;29;20741;-41
2023/04/28 10:45:59;;;;;;;8.50;3.00;;;13.90;99.90;;;;;;4914962;28;20214;-42
2023/04/28 10:49:02;;;;;;;3.53;3.00;;;13.80;99.90;;;;;;4906236;29;20216;-45
2023/04/28 10:51:32;;;;;;;3.67;2.97;;;13.90;90.40;;;;;;4943894;28;20290;-46
2023/04/28 10:54:10;;;;;;;3.17;2.87;;;13.80;91.30;;;;;;4956006;28;20190;-43
2023/04/28 10:56:38;;;;;;;4.13;2.90;;;13.80;90.40;;;;;;4944512;28;20797;-41
2023/04/28 10:59:26;;;;;;;4.77;3.27;;;13.80;90.90;;;;;;4955304;28;20197;-47
2023/04/28 11:01:52;;;;;;;12.13;3.77;;;13.90;90.00;;;;;;4964022;28;20272;-39
2023/04/28 11:04:19;;;;;;;3.50;3.20;;;13.90;90.60;;;;;;4957852;28;20194;-43
2023/04/28 11:07:08;;;;;;;5.00;3.20;;;13.90;90.60;;;;;;4946737;28;20217;-40
2023/04/28 11:09:48;;;;;;;4.17;3.13;;;14.00;91.40;;;;;;4956045;28;20901;-45
2023/04/28 11:12:15;;;;;;;4.47;3.33;;;14.00;90.40;;;;;;4945108;28;20233;-44
2023/04/28 11:14:41;;;;;;;5.23;3.23;;;14.10;91.00;;;;;;4963104;28;20206;-43
2023/04/28 11:17:11;;;;;;;5.23;3.90;;;14.20;89.30;;;;;;4937234;28;20304;-44
2023/04/28 11:19:40;;;;;;;4.00;3.20;;;14.30;90.50;;;;;;4951509;28;20868;-40
2023/04/28 11:22:15;;;;;;;3.60;3.30;;;14.40;90.20;;;;;;4948288;28;20206;-43
2023/04/28 11:24:54;;;;;;;4.00;3.57;;;14.40;90.00;;;;;;4956251;28;20208;-42
2023/04/28 11:27:23;;;;;;;3.37;3.07;;;14.60;85.60;;;;;;4948237;28;20951;-41
2023/04/28 11:29:50;;;;;;;5.63;3.93;;;14.60;89.30;;;;;;4954570;28;20661;-40
2023/04/28 11:32:17;;;;;;;6.13;3.23;;;14.70;90.20;;;;;;4935531;28;20286;-43
2023/04/28 11:34:51;;;;;;;11.77;3.70;;;15.00;90.40;;;;;;4957872;28;20273;-41
2023/04/28 11:37:20;;;;;;;6.53;3.50;;;15.00;88.00;;;;;;4948203;28;20304;-44
2023/04/28 11:39:47;;;;;;;4.20;3.23;;;14.90;89.40;;;;;;4963421;28;20229;-44
2023/04/28 11:42:16;;;;;;;3.93;3.07;;;15.00;89.80;;;;;;4952262;28;20194;-48
2023/04/28 11:44:50;;;;;;;7.53;3.63;;;15.20;87.30;;;;;;4953815;28;20206;-41
2023/04/28 11:47:27;;;;;;;4.67;3.87;;;15.20;87.90;;;;;;4935452;28;20233;-44
2023/04/28 11:49:55;;;;;;;6.33;3.67;;;15.30;87.60;;;;;;4956566;28;20671;-40
2023/04/28 11:52:24;;;;;;;6.77;3.80;;;15.30;88.10;;;;;;4946485;28;20213;-40
2023/04/28 11:54:56;;;;;;;4.90;3.53;;;15.30;87.80;;;;;;4960458;28;20253;-40
2023/04/28 11:57:24;;;;;;;4.03;3.70;;;15.30;87.80;;;;;;4950689;28;20264;-43
2023/04/28 11:59:51;;;;;;;4.90;3.77;;;15.30;87.80;;;;;;4941742;28;20609;-42
2023/04/28 12:02:25;;;;;;;3.43;3.10;;;15.30;86.80;;;;;;4925211;28;21221;-40
2023/04/28 12:04:51;;;;;;;5.03;3.60;;;15.30;87.20;;;;;;4958410;28;20195;-45
2023/04/28 12:07:19;;;;;;;3.83;3.37;;;15.40;86.40;;;;;;4951001;28;20234;-40
2023/04/28 12:09:48;;;;;;;6.07;3.90;;;15.30;86.20;;;;;;4953147;28;20229;-41
2023/04/28 12:12:17;;;;;;;8.53;4.00;;;15.20;86.40;;;;;;4963752;28;20675;-43
2023/04/28 12:14:57;;;;;;;6.17;3.67;;;15.20;86.50;;;;;;4947455;28;20257;-41
2023/04/28 12:17:26;;;;;;;3.73;3.43;;;15.10;85.60;;;;;;4935392;28;20237;-41
2023/04/28 12:19:54;;;;;;;8.10;3.97;;;15.10;86.40;;;;;;4964265;28;20284;-40
2023/04/28 12:22:20;;;;;;;6.80;3.47;;;15.00;85.90;;;;;;4955102;28;20236;-44
2023/04/28 12:25:03;;;;;;;4.67;3.77;;;15.00;86.20;;;;;;4955817;28;20273;-41
2023/04/28 12:27:31;;;;;;;4.43;3.40;;;14.90;85.70;;;;;;4962379;28;21050;-41
2023/04/28 12:29:57;;;;;;;5.70;4.00;;;14.80;86.90;;;;;;4932708;28;20206;-42
2023/04/28 12:32:38;;;;;;;5.47;3.70;;;14.70;86.70;;;;;;4950521;28;20206;-42
2023/04/28 12:35:06;;;;;;;5.40;3.60;;;14.60;86.90;;;;;;4931307;28;21012;-40
2023/04/28 12:37:32;;;;;;;8.60;3.90;;;14.50;87.30;;;;;;4959324;28;20253;-41
2023/04/28 12:40:03;;;;;;;6.73;4.37;;;14.50;87.40;;;;;;4955637;28;20620;-44
2023/04/28 12:42:30;;;;;;;6.00;3.60;;;14.40;87.70;;;;;;4960411;28;20194;-44
2023/04/28 12:44:57;;;;;;;3.70;3.17;;;14.40;87.70;;;;;;4946058;28;20210;-43
2023/04/28 12:47:24;;;;;;;7.73;3.93;;;14.30;87.70;;;;;;4960981;28;20213;-43
2023/04/28 12:49:52;;;;;;;6.23;4.17;;;14.30;88.10;;;;;;4945119;28;20337;-41
2023/04/28 12:52:19;;;;;;;5.20;3.30;;;14.30;88.30;;;;;;4951836;28;20209;-43
2023/04/28 12:54:46;;;;;;;6.40;3.60;;;14.30;88.00;;;;;;4958001;28;20701;-43
2023/04/28 12:57:15;;;;;;;3.80;3.30;;;14.30;88.20;;;;;;4951279;28;20221;-42
2023/04/28 12:59:44;;;;;;;5.30;3.60;;;14.40;88.70;;;;;;4961980;28;20202;-44
2023/04/28 13:02:11;;;;;;;4.60;3.80;;;14.30;88.30;;;;;;4951430;28;20899;-42
2023/04/28 13:04:38;;;;;;;4.43;3.67;;;14.30;88.40;;;;;;4942449;28;20734;-40
2023/04/28 13:07:06;;;;;;;6.90;4.13;;;14.30;88.30;;;;;;4954974;28;20329;-40